Etusivu
METAR-TAF:

METAR-TAF

Lentoasemat :

Park Rapids Municipal Airport (Konshok Field)

Park Rapids, Minnesota, Yhdysvallat

Leveyspiiri: 46-54-02N, Pituuspiiri: 095-04-04W, korkeus merenpinnasta: 439 m

Tämänhetkinen sää

Tämä raportti tehtiin 18 minuuttia sitten, kello 09.53 UTC
tyyntä
Lämpötila -28°C
Kosteus 75%
Ilmanpaine 1033 hPa
Näkyvyys: 16.1 km
selkeää

METAR: KPKD 190953Z AUTO 00000KT 10SM CLR M28/M31 A3051 RMK AO2 SLP379 T12781311

Aika: 04:11 (10:11 UTC)


TAF: puuttuu

Säähavainnot ja -ennusteet yli 4000 lentoasemalta (METAR- ja TAF-raportit).

Käytössä olevat sääasemat on merkitty karttaan keltaisilla ja punaisilla pisteillä.

Aseta hiiri pisteen päälle nähdäksesi sääaseman nimen.

Klikkaa sitten nähdäksesi säähavainnot ja -ennusteet.

Kartan vaihtaminen: klikkaa mustalla rastilla varustettuja vihreitä pisteitä, niin voit zoomata sisään; viivalla varustettua vihreää pistettä, niin voit zoomata ulos tai vihreitä nuolia, niin pääset viereisille kartoille.


METAR-TAF: